sensor_id;sensor_type;location;lat;lon;timestamp;P1;durP1;ratioP1;P2;durP2;ratioP2
72904;SDS011;61048;52.162;4.516;2023-05-07T00:01:45;11.80;;;2.60;;
72904;SDS011;61048;52.162;4.516;2023-05-07T00:04:12;7.65;;;2.65;;
72904;SDS011;61048;52.162;4.516;2023-05-07T00:06:39;10.88;;;1.67;;
72904;SDS011;61048;52.162;4.516;2023-05-07T00:09:07;9.43;;;2.05;;
72904;SDS011;61048;52.162;4.516;2023-05-07T00:11:34;6.80;;;2.45;;
72904;SDS011;61048;52.162;4.516;2023-05-07T00:14:01;13.23;;;1.60;;
72904;SDS011;61048;52.162;4.516;2023-05-07T00:16:29;3.85;;;2.00;;
72904;SDS011;61048;52.162;4.516;2023-05-07T00:18:57;8.63;;;1.90;;
72904;SDS011;61048;52.162;4.516;2023-05-07T00:21:24;6.47;;;2.67;;
72904;SDS011;61048;52.162;4.516;2023-05-07T00:23:52;8.38;;;2.90;;
72904;SDS011;61048;52.162;4.516;2023-05-07T00:26:19;5.28;;;2.45;;
72904;SDS011;61048;52.162;4.516;2023-05-07T00:28:46;6.35;;;2.38;;
72904;SDS011;61048;52.162;4.516;2023-05-07T00:31:13;3.10;;;1.45;;
72904;SDS011;61048;52.162;4.516;2023-05-07T00:33:42;4.97;;;1.67;;
72904;SDS011;61048;52.162;4.516;2023-05-07T00:36:09;8.15;;;2.00;;
72904;SDS011;61048;52.162;4.516;2023-05-07T00:38:36;5.72;;;2.25;;
72904;SDS011;61048;52.162;4.516;2023-05-07T00:41:03;6.63;;;2.78;;
72904;SDS011;61048;52.162;4.516;2023-05-07T00:43:30;5.15;;;2.40;;
72904;SDS011;61048;52.162;4.516;2023-05-07T00:45:58;5.53;;;2.72;;
72904;SDS011;61048;52.162;4.516;2023-05-07T00:48:25;9.98;;;2.20;;
72904;SDS011;61048;52.162;4.516;2023-05-07T00:50:54;4.95;;;1.80;;
72904;SDS011;61048;52.162;4.516;2023-05-07T00:53:21;4.55;;;1.92;;
72904;SDS011;61048;52.162;4.516;2023-05-07T00:55:48;4.43;;;1.38;;
72904;SDS011;61048;52.162;4.516;2023-05-07T00:58:16;4.57;;;2.10;;
72904;SDS011;61048;52.162;4.516;2023-05-07T01:00:43;3.08;;;1.15;;
72904;SDS011;61048;52.162;4.516;2023-05-07T01:03:10;7.35;;;1.98;;
72904;SDS011;61048;52.162;4.516;2023-05-07T01:05:37;6.57;;;2.85;;
72904;SDS011;61048;52.162;4.516;2023-05-07T01:08:06;5.35;;;2.17;;
72904;SDS011;61048;52.162;4.516;2023-05-07T01:10:33;3.42;;;1.95;;
72904;SDS011;61048;52.162;4.516;2023-05-07T01:13:00;3.58;;;1.90;;
72904;SDS011;61048;52.162;4.516;2023-05-07T01:15:28;8.73;;;1.95;;
72904;SDS011;61048;52.162;4.516;2023-05-07T01:17:55;5.63;;;2.03;;
72904;SDS011;61048;52.162;4.516;2023-05-07T01:20:23;3.50;;;1.80;;
72904;SDS011;61048;52.162;4.516;2023-05-07T01:22:51;6.65;;;1.83;;
72904;SDS011;61048;52.162;4.516;2023-05-07T01:25:19;4.50;;;2.45;;
72904;SDS011;61048;52.162;4.516;2023-05-07T01:27:46;4.70;;;2.05;;
72904;SDS011;61048;52.162;4.516;2023-05-07T01:30:13;4.00;;;1.80;;
72904;SDS011;61048;52.162;4.516;2023-05-07T01:32:41;6.30;;;2.45;;
72904;SDS011;61048;52.162;4.516;2023-05-07T01:35:11;4.68;;;2.30;;
72904;SDS011;61048;52.162;4.516;2023-05-07T01:37:39;6.70;;;1.80;;
72904;SDS011;61048;52.162;4.516;2023-05-07T01:40:08;5.88;;;2.17;;
72904;SDS011;61048;52.162;4.516;2023-05-07T01:42:35;4.20;;;2.42;;
72904;SDS011;61048;52.162;4.516;2023-05-07T01:45:03;2.95;;;1.15;;
72904;SDS011;61048;52.162;4.516;2023-05-07T01:47:30;5.35;;;2.28;;
72904;SDS011;61048;52.162;4.516;2023-05-07T01:49:57;4.85;;;2.00;;
72904;SDS011;61048;52.162;4.516;2023-05-07T01:52:24;3.88;;;1.20;;
72904;SDS011;61048;52.162;4.516;2023-05-07T01:54:52;4.57;;;1.50;;
72904;SDS011;61048;52.162;4.516;2023-05-07T01:57:20;3.17;;;2.08;;
72904;SDS011;61048;52.162;4.516;2023-05-07T01:59:47;4.60;;;2.05;;
72904;SDS011;61048;52.162;4.516;2023-05-07T02:02:15;5.10;;;2.58;;
72904;SDS011;61048;52.162;4.516;2023-05-07T02:04:42;4.57;;;2.60;;
72904;SDS011;61048;52.162;4.516;2023-05-07T02:07:09;3.75;;;2.03;;
72904;SDS011;61048;52.162;4.516;2023-05-07T02:09:36;5.15;;;2.00;;
72904;SDS011;61048;52.162;4.516;2023-05-07T02:12:04;4.57;;;2.67;;
72904;SDS011;61048;52.162;4.516;2023-05-07T02:14:32;4.13;;;1.83;;
72904;SDS011;61048;52.162;4.516;2023-05-07T02:16:59;3.40;;;2.50;;
72904;SDS011;61048;52.162;4.516;2023-05-07T02:19:27;2.75;;;1.67;;
72904;SDS011;61048;52.162;4.516;2023-05-07T02:21:54;4.45;;;1.90;;
72904;SDS011;61048;52.162;4.516;2023-05-07T02:24:21;2.55;;;1.85;;
72904;SDS011;61048;52.162;4.516;2023-05-07T02:26:48;4.03;;;1.20;;
72904;SDS011;61048;52.162;4.516;2023-05-07T02:29:15;3.33;;;1.75;;
72904;SDS011;61048;52.162;4.516;2023-05-07T02:31:44;2.95;;;1.92;;
72904;SDS011;61048;52.162;4.516;2023-05-07T02:34:11;4.28;;;1.88;;
72904;SDS011;61048;52.162;4.516;2023-05-07T02:36:38;5.15;;;2.15;;
72904;SDS011;61048;52.162;4.516;2023-05-07T02:39:05;4.05;;;1.83;;
72904;SDS011;61048;52.162;4.516;2023-05-07T02:41:32;2.95;;;2.05;;
72904;SDS011;61048;52.162;4.516;2023-05-07T02:43:59;3.05;;;2.15;;
72904;SDS011;61048;52.162;4.516;2023-05-07T02:46:26;3.08;;;2.08;;
72904;SDS011;61048;52.162;4.516;2023-05-07T02:48:55;3.40;;;1.90;;
72904;SDS011;61048;52.162;4.516;2023-05-07T02:51:22;3.90;;;2.22;;
72904;SDS011;61048;52.162;4.516;2023-05-07T02:53:50;3.22;;;1.63;;
72904;SDS011;61048;52.162;4.516;2023-05-07T02:56:18;3.20;;;1.85;;
72904;SDS011;61048;52.162;4.516;2023-05-07T02:58:46;2.90;;;2.03;;
72904;SDS011;61048;52.162;4.516;2023-05-07T03:01:13;2.80;;;1.23;;
72904;SDS011;61048;52.162;4.516;2023-05-07T03:03:40;4.15;;;1.75;;
72904;SDS011;61048;52.162;4.516;2023-05-07T03:06:09;11.15;;;2.08;;
72904;SDS011;61048;52.162;4.516;2023-05-07T03:08:36;5.93;;;2.13;;
72904;SDS011;61048;52.162;4.516;2023-05-07T03:11:03;6.40;;;1.88;;
72904;SDS011;61048;52.162;4.516;2023-05-07T03:13:30;3.70;;;1.92;;
72904;SDS011;61048;52.162;4.516;2023-05-07T03:15:57;2.63;;;1.83;;
72904;SDS011;61048;52.162;4.516;2023-05-07T03:18:24;3.25;;;1.83;;
72904;SDS011;61048;52.162;4.516;2023-05-07T03:20:51;2.55;;;1.00;;
72904;SDS011;61048;52.162;4.516;2023-05-07T03:23:20;2.88;;;1.83;;
72904;SDS011;61048;52.162;4.516;2023-05-07T03:25:47;3.10;;;1.10;;
72904;SDS011;61048;52.162;4.516;2023-05-07T03:28:14;3.33;;;1.02;;
72904;SDS011;61048;52.162;4.516;2023-05-07T03:30:41;5.38;;;1.90;;
72904;SDS011;61048;52.162;4.516;2023-05-07T03:33:08;3.00;;;1.92;;
72904;SDS011;61048;52.162;4.516;2023-05-07T03:35:36;3.45;;;1.40;;
72904;SDS011;61048;52.162;4.516;2023-05-07T03:38:03;2.75;;;2.08;;
72904;SDS011;61048;52.162;4.516;2023-05-07T03:40:31;2.25;;;1.67;;
72904;SDS011;61048;52.162;4.516;2023-05-07T03:42:59;3.15;;;2.03;;
72904;SDS011;61048;52.162;4.516;2023-05-07T03:45:26;3.83;;;1.80;;
72904;SDS011;61048;52.162;4.516;2023-05-07T03:47:53;3.03;;;2.20;;
72904;SDS011;61048;52.162;4.516;2023-05-07T03:50:20;2.33;;;0.95;;
72904;SDS011;61048;52.162;4.516;2023-05-07T03:52:48;2.92;;;1.77;;
72904;SDS011;61048;52.162;4.516;2023-05-07T03:55:15;2.75;;;1.67;;
72904;SDS011;61048;52.162;4.516;2023-05-07T03:57:44;4.50;;;1.40;;
72904;SDS011;61048;52.162;4.516;2023-05-07T04:00:12;2.00;;;1.42;;
72904;SDS011;61048;52.162;4.516;2023-05-07T04:02:39;3.28;;;1.52;;
72904;SDS011;61048;52.162;4.516;2023-05-07T04:05:06;2.45;;;1.60;;
72904;SDS011;61048;52.162;4.516;2023-05-07T04:07:34;2.97;;;1.30;;
72904;SDS011;61048;52.162;4.516;2023-05-07T04:10:01;3.00;;;1.63;;
72904;SDS011;61048;52.162;4.516;2023-05-07T04:12:28;3.50;;;1.67;;
72904;SDS011;61048;52.162;4.516;2023-05-07T04:14:56;3.03;;;1.88;;
72904;SDS011;61048;52.162;4.516;2023-05-07T04:17:24;1.70;;;1.00;;
72904;SDS011;61048;52.162;4.516;2023-05-07T04:19:51;2.30;;;1.02;;
72904;SDS011;61048;52.162;4.516;2023-05-07T04:22:18;3.60;;;1.25;;
72904;SDS011;61048;52.162;4.516;2023-05-07T04:24:45;1.85;;;0.93;;
72904;SDS011;61048;52.162;4.516;2023-05-07T04:27:12;2.63;;;1.95;;
72904;SDS011;61048;52.162;4.516;2023-05-07T04:29:39;2.00;;;1.42;;
72904;SDS011;61048;52.162;4.516;2023-05-07T04:32:09;1.85;;;1.23;;
72904;SDS011;61048;52.162;4.516;2023-05-07T04:34:36;3.03;;;1.40;;
72904;SDS011;61048;52.162;4.516;2023-05-07T04:37:03;1.95;;;1.30;;
72904;SDS011;61048;52.162;4.516;2023-05-07T04:39:30;2.97;;;1.48;;
72904;SDS011;61048;52.162;4.516;2023-05-07T04:42:00;2.10;;;1.58;;
72904;SDS011;61048;52.162;4.516;2023-05-07T04:44:28;2.65;;;0.80;;
72904;SDS011;61048;52.162;4.516;2023-05-07T04:46:56;5.30;;;2.55;;
72904;SDS011;61048;52.162;4.516;2023-05-07T04:49:24;5.13;;;1.30;;
72904;SDS011;61048;52.162;4.516;2023-05-07T04:51:51;2.92;;;1.23;;
72904;SDS011;61048;52.162;4.516;2023-05-07T04:54:19;2.42;;;1.48;;
72904;SDS011;61048;52.162;4.516;2023-05-07T04:56:46;2.65;;;0.88;;
72904;SDS011;61048;52.162;4.516;2023-05-07T04:59:13;2.80;;;1.95;;
72904;SDS011;61048;52.162;4.516;2023-05-07T05:01:40;2.55;;;1.17;;
72904;SDS011;61048;52.162;4.516;2023-05-07T05:04:07;3.67;;;1.35;;
72904;SDS011;61048;52.162;4.516;2023-05-07T05:06:36;1.70;;;1.20;;
72904;SDS011;61048;52.162;4.516;2023-05-07T05:09:03;2.58;;;1.50;;
72904;SDS011;61048;52.162;4.516;2023-05-07T05:11:30;1.85;;;1.02;;
72904;SDS011;61048;52.162;4.516;2023-05-07T05:13:58;5.25;;;1.45;;
72904;SDS011;61048;52.162;4.516;2023-05-07T05:16:27;2.67;;;1.30;;
72904;SDS011;61048;52.162;4.516;2023-05-07T05:18:54;1.45;;;0.68;;
72904;SDS011;61048;52.162;4.516;2023-05-07T05:21:21;2.47;;;1.35;;
72904;SDS011;61048;52.162;4.516;2023-05-07T05:23:49;5.30;;;0.80;;
72904;SDS011;61048;52.162;4.516;2023-05-07T05:26:17;2.55;;;1.52;;
72904;SDS011;61048;52.162;4.516;2023-05-07T05:28:46;2.75;;;1.10;;
72904;SDS011;61048;52.162;4.516;2023-05-07T05:31:13;3.22;;;1.30;;
72904;SDS011;61048;52.162;4.516;2023-05-07T05:33:40;1.83;;;1.20;;
72904;SDS011;61048;52.162;4.516;2023-05-07T05:36:09;3.22;;;0.65;;
72904;SDS011;61048;52.162;4.516;2023-05-07T05:38:37;1.42;;;0.70;;
72904;SDS011;61048;52.162;4.516;2023-05-07T05:41:05;2.63;;;1.42;;
72904;SDS011;61048;52.162;4.516;2023-05-07T05:43:32;7.43;;;1.88;;
72904;SDS011;61048;52.162;4.516;2023-05-07T05:45:59;2.17;;;0.70;;
72904;SDS011;61048;52.162;4.516;2023-05-07T05:48:26;1.92;;;1.15;;
72904;SDS011;61048;52.162;4.516;2023-05-07T05:50:54;2.75;;;1.00;;
72904;SDS011;61048;52.162;4.516;2023-05-07T05:53:21;2.38;;;1.55;;
72904;SDS011;61048;52.162;4.516;2023-05-07T05:55:48;2.05;;;1.05;;
72904;SDS011;61048;52.162;4.516;2023-05-07T05:58:17;2.33;;;0.70;;
72904;SDS011;61048;52.162;4.516;2023-05-07T06:00:45;2.90;;;1.42;;
72904;SDS011;61048;52.162;4.516;2023-05-07T06:03:13;1.65;;;0.90;;
72904;SDS011;61048;52.162;4.516;2023-05-07T06:05:40;1.63;;;1.00;;
72904;SDS011;61048;52.162;4.516;2023-05-07T06:08:07;2.50;;;1.58;;
72904;SDS011;61048;52.162;4.516;2023-05-07T06:10:35;1.42;;;1.00;;
72904;SDS011;61048;52.162;4.516;2023-05-07T06:13:02;1.98;;;0.90;;
72904;SDS011;61048;52.162;4.516;2023-05-07T06:15:31;2.63;;;1.10;;
72904;SDS011;61048;52.162;4.516;2023-05-07T06:17:58;3.60;;;1.20;;
72904;SDS011;61048;52.162;4.516;2023-05-07T06:20:25;3.03;;;1.30;;
72904;SDS011;61048;52.162;4.516;2023-05-07T06:22:52;2.15;;;1.42;;
72904;SDS011;61048;52.162;4.516;2023-05-07T06:25:20;3.72;;;1.38;;
72904;SDS011;61048;52.162;4.516;2023-05-07T06:27:47;3.25;;;1.20;;
72904;SDS011;61048;52.162;4.516;2023-05-07T06:30:14;13.75;;;1.45;;
72904;SDS011;61048;52.162;4.516;2023-05-07T06:32:42;4.15;;;0.70;;
72904;SDS011;61048;52.162;4.516;2023-05-07T06:35:10;2.72;;;1.30;;
72904;SDS011;61048;52.162;4.516;2023-05-07T06:37:37;5.03;;;1.80;;
72904;SDS011;61048;52.162;4.516;2023-05-07T06:40:05;1.85;;;1.30;;
72904;SDS011;61048;52.162;4.516;2023-05-07T06:42:32;3.30;;;1.98;;
72904;SDS011;61048;52.162;4.516;2023-05-07T06:44:59;5.10;;;1.75;;
72904;SDS011;61048;52.162;4.516;2023-05-07T06:47:27;2.45;;;1.80;;
72904;SDS011;61048;52.162;4.516;2023-05-07T06:49:56;2.50;;;1.40;;
72904;SDS011;61048;52.162;4.516;2023-05-07T06:52:23;2.70;;;0.80;;
72904;SDS011;61048;52.162;4.516;2023-05-07T06:54:51;2.13;;;0.80;;
72904;SDS011;61048;52.162;4.516;2023-05-07T06:57:18;2.45;;;1.30;;
72904;SDS011;61048;52.162;4.516;2023-05-07T06:59:45;2.35;;;1.38;;
72904;SDS011;61048;52.162;4.516;2023-05-07T07:02:12;2.80;;;1.25;;
72904;SDS011;61048;52.162;4.516;2023-05-07T07:04:39;3.10;;;1.50;;
72904;SDS011;61048;52.162;4.516;2023-05-07T07:07:08;4.00;;;0.93;;
72904;SDS011;61048;52.162;4.516;2023-05-07T07:09:35;2.00;;;1.20;;
72904;SDS011;61048;52.162;4.516;2023-05-07T07:12:03;2.78;;;1.38;;
72904;SDS011;61048;52.162;4.516;2023-05-07T07:14:30;3.85;;;1.52;;
72904;SDS011;61048;52.162;4.516;2023-05-07T07:16:57;3.42;;;1.60;;
72904;SDS011;61048;52.162;4.516;2023-05-07T07:19:25;1.85;;;1.38;;
72904;SDS011;61048;52.162;4.516;2023-05-07T07:21:52;2.83;;;1.02;;
72904;SDS011;61048;52.162;4.516;2023-05-07T07:24:21;2.38;;;1.65;;
72904;SDS011;61048;52.162;4.516;2023-05-07T07:26:48;2.88;;;1.38;;
72904;SDS011;61048;52.162;4.516;2023-05-07T07:29:15;3.20;;;1.20;;
72904;SDS011;61048;52.162;4.516;2023-05-07T07:31:43;3.55;;;1.70;;
72904;SDS011;61048;52.162;4.516;2023-05-07T07:34:10;3.22;;;1.50;;
72904;SDS011;61048;52.162;4.516;2023-05-07T07:36:37;2.55;;;1.38;;
72904;SDS011;61048;52.162;4.516;2023-05-07T07:39:05;2.53;;;1.45;;
72904;SDS011;61048;52.162;4.516;2023-05-07T07:41:33;1.80;;;1.02;;
72904;SDS011;61048;52.162;4.516;2023-05-07T07:44:00;2.10;;;1.13;;
72904;SDS011;61048;52.162;4.516;2023-05-07T07:46:28;1.33;;;0.80;;
72904;SDS011;61048;52.162;4.516;2023-05-07T07:48:55;1.58;;;0.73;;
72904;SDS011;61048;52.162;4.516;2023-05-07T07:51:24;5.00;;;1.10;;
72904;SDS011;61048;52.162;4.516;2023-05-07T07:53:52;2.40;;;0.88;;
72904;SDS011;61048;52.162;4.516;2023-05-07T07:56:19;3.42;;;1.42;;
72904;SDS011;61048;52.162;4.516;2023-05-07T07:58:48;6.20;;;0.93;;
72904;SDS011;61048;52.162;4.516;2023-05-07T08:01:15;5.18;;;1.05;;
72904;SDS011;61048;52.162;4.516;2023-05-07T08:03:43;2.45;;;0.70;;
72904;SDS011;61048;52.162;4.516;2023-05-07T08:06:10;17.95;;;1.58;;
72904;SDS011;61048;52.162;4.516;2023-05-07T08:08:37;2.83;;;0.85;;
72904;SDS011;61048;52.162;4.516;2023-05-07T08:11:04;2.95;;;1.27;;
72904;SDS011;61048;52.162;4.516;2023-05-07T08:13:31;3.03;;;0.90;;
72904;SDS011;61048;52.162;4.516;2023-05-07T08:16:00;1.80;;;0.88;;
72904;SDS011;61048;52.162;4.516;2023-05-07T08:18:27;3.08;;;0.70;;
72904;SDS011;61048;52.162;4.516;2023-05-07T08:20:54;3.13;;;0.70;;
72904;SDS011;61048;52.162;4.516;2023-05-07T08:23:21;5.05;;;1.17;;
72904;SDS011;61048;52.162;4.516;2023-05-07T08:25:49;2.00;;;1.15;;
72904;SDS011;61048;52.162;4.516;2023-05-07T08:28:17;1.75;;;0.70;;
72904;SDS011;61048;52.162;4.516;2023-05-07T08:30:44;1.98;;;0.75;;
72904;SDS011;61048;52.162;4.516;2023-05-07T08:33:13;3.10;;;0.50;;
72904;SDS011;61048;52.162;4.516;2023-05-07T08:35:40;6.22;;;0.93;;
72904;SDS011;61048;52.162;4.516;2023-05-07T08:38:07;2.13;;;0.60;;
72904;SDS011;61048;52.162;4.516;2023-05-07T08:40:36;4.97;;;1.80;;
72904;SDS011;61048;52.162;4.516;2023-05-07T08:43:04;3.88;;;0.55;;
72904;SDS011;61048;52.162;4.516;2023-05-07T08:45:32;2.90;;;0.77;;
72904;SDS011;61048;52.162;4.516;2023-05-07T08:48:01;1.92;;;0.80;;
72904;SDS011;61048;52.162;4.516;2023-05-07T08:50:30;3.75;;;0.60;;
72904;SDS011;61048;52.162;4.516;2023-05-07T08:52:57;2.05;;;0.50;;
72904;SDS011;61048;52.162;4.516;2023-05-07T08:55:25;1.85;;;0.50;;
72904;SDS011;61048;52.162;4.516;2023-05-07T08:57:52;1.83;;;1.20;;
72904;SDS011;61048;52.162;4.516;2023-05-07T09:00:19;2.30;;;0.50;;
72904;SDS011;61048;52.162;4.516;2023-05-07T09:02:46;2.38;;;0.90;;
72904;SDS011;61048;52.162;4.516;2023-05-07T09:05:14;1.77;;;0.60;;
72904;SDS011;61048;52.162;4.516;2023-05-07T09:07:42;2.70;;;1.00;;
72904;SDS011;61048;52.162;4.516;2023-05-07T09:10:09;2.40;;;0.73;;
72904;SDS011;61048;52.162;4.516;2023-05-07T09:12:37;3.58;;;0.60;;
72904;SDS011;61048;52.162;4.516;2023-05-07T09:15:04;4.35;;;0.60;;
72904;SDS011;61048;52.162;4.516;2023-05-07T09:17:32;2.70;;;0.77;;
72904;SDS011;61048;52.162;4.516;2023-05-07T09:20:01;2.10;;;0.50;;
72904;SDS011;61048;52.162;4.516;2023-05-07T09:22:31;2.80;;;1.30;;
72904;SDS011;61048;52.162;4.516;2023-05-07T09:24:59;2.53;;;0.77;;
72904;SDS011;61048;52.162;4.516;2023-05-07T09:27:27;5.38;;;0.60;;
72904;SDS011;61048;52.162;4.516;2023-05-07T09:29:54;2.65;;;0.88;;
72904;SDS011;61048;52.162;4.516;2023-05-07T09:32:22;1.33;;;0.55;;
72904;SDS011;61048;52.162;4.516;2023-05-07T09:34:49;4.68;;;0.60;;
72904;SDS011;61048;52.162;4.516;2023-05-07T09:37:16;4.82;;;0.70;;
72904;SDS011;61048;52.162;4.516;2023-05-07T09:39:44;11.50;;;1.35;;
72904;SDS011;61048;52.162;4.516;2023-05-07T09:42:13;21.48;;;3.00;;
72904;SDS011;61048;52.162;4.516;2023-05-07T09:44:41;21.02;;;3.35;;
72904;SDS011;61048;52.162;4.516;2023-05-07T09:47:08;9.48;;;2.15;;
72904;SDS011;61048;52.162;4.516;2023-05-07T09:49:39;20.65;;;2.50;;
72904;SDS011;61048;52.162;4.516;2023-05-07T09:52:07;29.08;;;4.72;;
72904;SDS011;61048;52.162;4.516;2023-05-07T09:54:35;38.50;;;7.20;;
72904;SDS011;61048;52.162;4.516;2023-05-07T09:57:04;45.35;;;8.50;;
72904;SDS011;61048;52.162;4.516;2023-05-07T09:59:33;57.95;;;11.30;;
72904;SDS011;61048;52.162;4.516;2023-05-07T10:02:01;49.50;;;10.13;;
72904;SDS011;61048;52.162;4.516;2023-05-07T10:04:28;57.10;;;11.02;;
72904;SDS011;61048;52.162;4.516;2023-05-07T10:06:55;44.45;;;8.25;;
72904;SDS011;61048;52.162;4.516;2023-05-07T10:09:23;24.60;;;5.32;;
72904;SDS011;61048;52.162;4.516;2023-05-07T10:11:50;32.58;;;6.78;;
72904;SDS011;61048;52.162;4.516;2023-05-07T10:14:18;22.30;;;4.78;;
72904;SDS011;61048;52.162;4.516;2023-05-07T10:16:47;18.00;;;4.70;;
72904;SDS011;61048;52.162;4.516;2023-05-07T10:19:15;21.52;;;4.32;;
72904;SDS011;61048;52.162;4.516;2023-05-07T10:21:44;24.83;;;5.28;;
72904;SDS011;61048;52.162;4.516;2023-05-07T10:24:13;29.02;;;4.82;;
72904;SDS011;61048;52.162;4.516;2023-05-07T10:26:44;27.23;;;5.95;;
72904;SDS011;61048;52.162;4.516;2023-05-07T10:29:12;24.88;;;5.78;;
72904;SDS011;61048;52.162;4.516;2023-05-07T10:31:52;25.83;;;6.25;;
72904;SDS011;61048;52.162;4.516;2023-05-07T10:34:21;20.52;;;5.20;;
72904;SDS011;61048;52.162;4.516;2023-05-07T10:36:49;23.70;;;5.40;;
72904;SDS011;61048;52.162;4.516;2023-05-07T10:39:17;19.30;;;4.88;;
72904;SDS011;61048;52.162;4.516;2023-05-07T10:41:47;22.70;;;4.80;;
72904;SDS011;61048;52.162;4.516;2023-05-07T10:44:24;21.55;;;5.40;;
72904;SDS011;61048;52.162;4.516;2023-05-07T10:49:20;20.70;;;4.95;;
72904;SDS011;61048;52.162;4.516;2023-05-07T10:51:53;26.13;;;6.20;;
72904;SDS011;61048;52.162;4.516;2023-05-07T10:54:37;22.60;;;4.90;;
72904;SDS011;61048;52.162;4.516;2023-05-07T10:59:46;17.38;;;3.90;;
72904;SDS011;61048;52.162;4.516;2023-05-07T11:02:14;18.20;;;3.97;;
72904;SDS011;61048;52.162;4.516;2023-05-07T11:04:42;14.77;;;4.43;;
72904;SDS011;61048;52.162;4.516;2023-05-07T11:07:29;17.48;;;4.18;;
72904;SDS011;61048;52.162;4.516;2023-05-07T11:10:00;15.18;;;3.45;;
72904;SDS011;61048;52.162;4.516;2023-05-07T11:12:51;13.40;;;3.58;;
72904;SDS011;61048;52.162;4.516;2023-05-07T11:18:00;12.45;;;3.40;;
72904;SDS011;61048;52.162;4.516;2023-05-07T11:23:18;11.48;;;3.17;;
72904;SDS011;61048;52.162;4.516;2023-05-07T11:26:05;9.70;;;3.67;;
72904;SDS011;61048;52.162;4.516;2023-05-07T11:28:36;12.27;;;2.80;;
72904;SDS011;61048;52.162;4.516;2023-05-07T11:31:03;12.02;;;3.55;;
72904;SDS011;61048;52.162;4.516;2023-05-07T11:33:31;14.25;;;3.50;;
72904;SDS011;61048;52.162;4.516;2023-05-07T11:35:59;11.88;;;3.45;;
72904;SDS011;61048;52.162;4.516;2023-05-07T11:38:28;13.35;;;3.42;;
72904;SDS011;61048;52.162;4.516;2023-05-07T11:40:56;10.82;;;2.92;;
72904;SDS011;61048;52.162;4.516;2023-05-07T11:43:23;15.20;;;3.60;;
72904;SDS011;61048;52.162;4.516;2023-05-07T11:45:51;8.43;;;2.63;;
72904;SDS011;61048;52.162;4.516;2023-05-07T11:48:18;12.68;;;3.10;;
72904;SDS011;61048;52.162;4.516;2023-05-07T11:50:51;10.27;;;2.90;;
72904;SDS011;61048;52.162;4.516;2023-05-07T11:53:18;11.18;;;3.10;;
72904;SDS011;61048;52.162;4.516;2023-05-07T11:55:47;8.40;;;2.33;;
72904;SDS011;61048;52.162;4.516;2023-05-07T11:58:20;9.65;;;3.03;;
72904;SDS011;61048;52.162;4.516;2023-05-07T12:00:48;43.28;;;8.93;;
72904;SDS011;61048;52.162;4.516;2023-05-07T12:03:16;51.28;;;12.15;;
72904;SDS011;61048;52.162;4.516;2023-05-07T12:05:44;26.70;;;4.95;;
72904;SDS011;61048;52.162;4.516;2023-05-07T12:08:13;26.45;;;5.03;;
72904;SDS011;61048;52.162;4.516;2023-05-07T12:10:41;19.30;;;4.88;;
72904;SDS011;61048;52.162;4.516;2023-05-07T12:13:15;26.38;;;4.85;;
72904;SDS011;61048;52.162;4.516;2023-05-07T12:15:42;22.83;;;4.88;;
72904;SDS011;61048;52.162;4.516;2023-05-07T12:18:09;24.58;;;5.82;;
72904;SDS011;61048;52.162;4.516;2023-05-07T12:20:37;25.15;;;4.63;;
72904;SDS011;61048;52.162;4.516;2023-05-07T12:23:04;22.10;;;4.95;;
72904;SDS011;61048;52.162;4.516;2023-05-07T12:25:32;18.20;;;3.80;;
72904;SDS011;61048;52.162;4.516;2023-05-07T12:28:00;24.08;;;5.15;;
72904;SDS011;61048;52.162;4.516;2023-05-07T12:30:28;18.50;;;4.50;;
72904;SDS011;61048;52.162;4.516;2023-05-07T12:32:56;17.80;;;3.70;;
72904;SDS011;61048;52.162;4.516;2023-05-07T12:35:26;17.73;;;3.75;;
72904;SDS011;61048;52.162;4.516;2023-05-07T12:37:56;15.93;;;4.43;;
72904;SDS011;61048;52.162;4.516;2023-05-07T12:40:24;13.68;;;4.10;;
72904;SDS011;61048;52.162;4.516;2023-05-07T12:42:52;10.63;;;3.95;;
72904;SDS011;61048;52.162;4.516;2023-05-07T12:45:20;13.75;;;3.92;;
72904;SDS011;61048;52.162;4.516;2023-05-07T12:47:49;12.43;;;4.13;;
72904;SDS011;61048;52.162;4.516;2023-05-07T12:50:16;11.48;;;3.05;;
72904;SDS011;61048;52.162;4.516;2023-05-07T12:52:43;9.82;;;2.75;;
72904;SDS011;61048;52.162;4.516;2023-05-07T12:55:12;11.52;;;3.42;;
72904;SDS011;61048;52.162;4.516;2023-05-07T12:57:40;8.60;;;3.38;;
72904;SDS011;61048;52.162;4.516;2023-05-07T13:00:08;10.20;;;3.88;;
72904;SDS011;61048;52.162;4.516;2023-05-07T13:02:37;8.05;;;2.80;;
72904;SDS011;61048;52.162;4.516;2023-05-07T13:05:06;10.80;;;3.53;;
72904;SDS011;61048;52.162;4.516;2023-05-07T13:07:33;11.68;;;2.42;;
72904;SDS011;61048;52.162;4.516;2023-05-07T13:10:01;12.13;;;2.47;;
72904;SDS011;61048;52.162;4.516;2023-05-07T13:12:29;11.20;;;2.92;;
72904;SDS011;61048;52.162;4.516;2023-05-07T13:14:56;8.73;;;2.30;;
72904;SDS011;61048;52.162;4.516;2023-05-07T13:17:24;8.05;;;2.35;;
72904;SDS011;61048;52.162;4.516;2023-05-07T13:19:51;9.45;;;2.40;;
72904;SDS011;61048;52.162;4.516;2023-05-07T13:22:19;9.00;;;2.45;;
72904;SDS011;61048;52.162;4.516;2023-05-07T13:24:46;10.10;;;2.13;;
72904;SDS011;61048;52.162;4.516;2023-05-07T13:27:14;11.07;;;2.17;;
72904;SDS011;61048;52.162;4.516;2023-05-07T13:29:41;6.03;;;1.83;;
72904;SDS011;61048;52.162;4.516;2023-05-07T13:32:08;6.13;;;2.65;;
72904;SDS011;61048;52.162;4.516;2023-05-07T13:34:35;5.07;;;1.83;;
72904;SDS011;61048;52.162;4.516;2023-05-07T13:37:02;8.75;;;2.45;;
72904;SDS011;61048;52.162;4.516;2023-05-07T13:39:31;8.52;;;2.90;;
72904;SDS011;61048;52.162;4.516;2023-05-07T13:41:58;5.93;;;3.45;;
72904;SDS011;61048;52.162;4.516;2023-05-07T13:44:25;8.88;;;3.50;;
72904;SDS011;61048;52.162;4.516;2023-05-07T13:46:52;7.05;;;2.83;;
72904;SDS011;61048;52.162;4.516;2023-05-07T13:49:20;5.72;;;2.35;;
72904;SDS011;61048;52.162;4.516;2023-05-07T13:51:47;8.43;;;2.72;;
72904;SDS011;61048;52.162;4.516;2023-05-07T13:54:14;7.85;;;2.15;;
72904;SDS011;61048;52.162;4.516;2023-05-07T13:56:43;5.15;;;2.00;;
72904;SDS011;61048;52.162;4.516;2023-05-07T13:59:10;5.30;;;2.10;;
72904;SDS011;61048;52.162;4.516;2023-05-07T14:01:39;6.18;;;3.38;;
72904;SDS011;61048;52.162;4.516;2023-05-07T14:04:06;7.25;;;2.67;;
72904;SDS011;61048;52.162;4.516;2023-05-07T14:06:33;5.20;;;2.45;;
72904;SDS011;61048;52.162;4.516;2023-05-07T14:09:00;7.47;;;2.40;;
72904;SDS011;61048;52.162;4.516;2023-05-07T14:11:28;6.18;;;3.00;;
72904;SDS011;61048;52.162;4.516;2023-05-07T14:13:56;7.15;;;2.30;;
72904;SDS011;61048;52.162;4.516;2023-05-07T14:16:23;4.72;;;2.08;;
72904;SDS011;61048;52.162;4.516;2023-05-07T14:18:50;6.43;;;2.00;;
72904;SDS011;61048;52.162;4.516;2023-05-07T14:21:18;7.47;;;1.88;;
72904;SDS011;61048;52.162;4.516;2023-05-07T14:23:45;3.75;;;1.63;;
72904;SDS011;61048;52.162;4.516;2023-05-07T14:26:12;4.25;;;1.90;;
72904;SDS011;61048;52.162;4.516;2023-05-07T14:28:39;3.80;;;2.17;;
72904;SDS011;61048;52.162;4.516;2023-05-07T14:31:12;4.30;;;2.25;;
72904;SDS011;61048;52.162;4.516;2023-05-07T14:33:39;4.85;;;1.80;;
72904;SDS011;61048;52.162;4.516;2023-05-07T14:36:06;5.25;;;2.40;;
72904;SDS011;61048;52.162;4.516;2023-05-07T14:38:34;5.03;;;2.08;;
72904;SDS011;61048;52.162;4.516;2023-05-07T14:41:01;6.07;;;2.50;;
72904;SDS011;61048;52.162;4.516;2023-05-07T14:43:28;6.65;;;3.15;;
72904;SDS011;61048;52.162;4.516;2023-05-07T14:45:55;4.68;;;2.30;;
72904;SDS011;61048;52.162;4.516;2023-05-07T14:48:23;6.20;;;3.60;;
72904;SDS011;61048;52.162;4.516;2023-05-07T14:50:51;5.68;;;2.80;;
72904;SDS011;61048;52.162;4.516;2023-05-07T14:53:18;5.70;;;2.80;;
72904;SDS011;61048;52.162;4.516;2023-05-07T14:55:45;5.68;;;2.65;;
72904;SDS011;61048;52.162;4.516;2023-05-07T14:58:12;5.72;;;2.53;;
72904;SDS011;61048;52.162;4.516;2023-05-07T15:00:39;6.53;;;3.67;;